createdAt,value
2022-10-31T00:00:39.847Z,15.13
2022-10-31T00:05:44.945Z,14.75
2022-10-31T00:10:40.722Z,14.56
2022-10-31T00:15:44.764Z,14.83
2022-10-31T00:20:41.980Z,14.44
2022-10-31T00:25:50.502Z,15.36
2022-10-31T00:31:03.787Z,15.20
2022-10-31T00:36:30.342Z,13.64
2022-10-31T00:41:29.217Z,13.85
2022-10-31T00:46:38.945Z,13.59
2022-10-31T00:51:42.417Z,14.47
2022-10-31T00:56:50.510Z,14.31
2022-10-31T01:01:51.369Z,14.32
2022-10-31T01:06:45.424Z,14.71
2022-10-31T01:11:45.725Z,13.67
2022-10-31T01:16:42.766Z,14.30
2022-10-31T01:21:45.958Z,13.30
2022-10-31T01:26:53.073Z,14.72
2022-10-31T01:31:52.493Z,14.60
2022-10-31T01:36:52.605Z,14.24
2022-10-31T01:41:48.989Z,14.64
2022-10-31T01:46:48.196Z,13.25
2022-10-31T01:51:57.353Z,13.35
2022-10-31T01:56:59.877Z,13.21
2022-10-31T02:01:59.395Z,13.48
2022-10-31T02:07:29.085Z,14.18
2022-10-31T02:12:32.519Z,14.13
2022-10-31T02:17:33.622Z,13.02
2022-10-31T02:22:32.854Z,13.57
2022-10-31T02:28:01.703Z,14.46
2022-10-31T02:33:19.081Z,14.47
2022-10-31T02:38:29.414Z,13.64
2022-10-31T02:43:39.498Z,14.18
2022-10-31T02:48:46.964Z,14.57
2022-10-31T02:53:41.029Z,14.57
2022-10-31T02:58:43.727Z,13.41
2022-10-31T03:04:00.804Z,14.81
2022-10-31T03:09:13.501Z,13.97
2022-10-31T03:14:38.505Z,13.53
2022-10-31T03:19:47.034Z,12.88
2022-10-31T03:24:43.390Z,13.01
2022-10-31T03:29:44.959Z,12.85
2022-10-31T03:34:47.863Z,12.39
2022-10-31T03:39:46.146Z,12.51
2022-10-31T03:44:54.877Z,12.82
2022-10-31T03:50:16.393Z,12.33
2022-10-31T03:55:31.557Z,13.33
2022-10-31T04:00:59.856Z,12.80
2022-10-31T04:26:58.787Z,13.61
2022-10-31T04:37:05.511Z,13.04
2022-10-31T04:42:16.778Z,13.03
2022-10-31T04:47:13.830Z,12.02
2022-10-31T04:52:24.800Z,13.16
2022-10-31T05:24:24.140Z,12.35
2022-10-31T05:29:17.652Z,11.98
2022-10-31T05:34:10.949Z,12.06
2022-10-31T05:39:20.698Z,10.85
2022-10-31T05:44:18.238Z,11.01
2022-10-31T05:49:30.151Z,11.00
2022-10-31T05:54:29.517Z,11.12
2022-10-31T05:59:24.447Z,12.08
2022-10-31T06:04:17.954Z,12.55
2022-10-31T06:09:15.595Z,12.64
2022-10-31T06:14:14.814Z,12.74
2022-10-31T06:19:20.538Z,12.55
2022-10-31T06:24:16.045Z,12.88
2022-10-31T06:29:27.682Z,12.91
2022-10-31T06:34:53.665Z,12.25
2022-10-31T06:39:47.492Z,12.75
2022-10-31T06:44:42.980Z,13.34
2022-10-31T06:49:58.619Z,12.16
2022-10-31T06:54:52.949Z,13.18
2022-10-31T06:59:51.032Z,13.33
2022-10-31T07:04:58.094Z,14.07
2022-10-31T07:09:51.641Z,14.37
2022-10-31T07:14:57.042Z,14.65
2022-10-31T07:19:54.736Z,14.13
2022-10-31T07:24:49.801Z,14.43
2022-10-31T07:30:01.939Z,15.09
2022-10-31T07:34:57.384Z,15.25
2022-10-31T07:40:04.857Z,14.99
2022-10-31T07:45:03.123Z,15.58
2022-10-31T07:50:17.707Z,15.89
2022-10-31T07:55:27.367Z,15.84
2022-10-31T08:00:24.083Z,15.35
2022-10-31T08:05:21.353Z,16.40
2022-10-31T08:10:48.667Z,16.85
2022-10-31T08:15:50.975Z,16.94
2022-10-31T08:20:52.069Z,16.26
2022-10-31T08:25:48.024Z,17.49
2022-10-31T08:30:51.618Z,17.36
2022-10-31T08:36:17.983Z,17.78
2022-10-31T08:41:36.657Z,17.98
2022-10-31T08:46:32.803Z,18.19
2022-10-31T08:51:28.929Z,18.34
2022-10-31T08:56:31.780Z,19.90
2022-10-31T09:01:30.170Z,19.83
2022-10-31T09:06:25.076Z,21.16
2022-10-31T09:11:26.173Z,21.38
2022-10-31T09:16:47.024Z,21.24
2022-10-31T09:21:54.648Z,21.18
2022-10-31T09:28:33.038Z,20.03
2022-10-31T10:23:33.365Z,22.33
2022-10-31T10:35:54.442Z,22.57
2022-10-31T10:53:50.268Z,22.28
2022-10-31T12:00:15.228Z,21.66
2022-10-31T12:13:25.568Z,22.56
2022-10-31T12:20:25.905Z,22.29
2022-10-31T12:26:55.717Z,22.53
2022-10-31T12:33:09.058Z,21.72
2022-10-31T12:39:00.558Z,21.06
2022-10-31T12:58:22.858Z,22.86
2022-10-31T13:24:28.994Z,22.51
2022-10-31T13:44:22.073Z,22.56
2022-10-31T13:57:05.387Z,22.45
2022-10-31T14:15:34.273Z,21.66
2022-10-31T14:27:55.863Z,20.81
2022-10-31T14:33:51.434Z,20.79
2022-10-31T14:39:22.197Z,20.20
2022-10-31T14:44:51.586Z,21.39
2022-10-31T14:50:16.563Z,20.83
2022-10-31T14:55:54.390Z,20.08
2022-10-31T15:01:16.668Z,20.87
2022-10-31T15:06:26.847Z,20.70
2022-10-31T15:11:30.857Z,19.55
2022-10-31T15:21:36.063Z,19.94
2022-10-31T15:26:36.514Z,18.61
2022-10-31T15:31:41.927Z,18.69
2022-10-31T15:36:52.557Z,19.26
2022-10-31T15:42:09.006Z,19.78
2022-10-31T15:47:17.976Z,19.33
2022-10-31T15:53:48.755Z,19.55
2022-10-31T16:19:40.261Z,19.16
2022-10-31T16:31:00.699Z,17.70
2022-10-31T16:42:12.377Z,17.70
2022-10-31T16:55:00.215Z,17.07
2022-10-31T17:00:10.642Z,17.78
2022-10-31T17:05:48.249Z,17.58
2022-10-31T17:11:37.414Z,17.70
2022-10-31T17:17:34.474Z,16.40
2022-10-31T17:30:04.434Z,17.04
2022-10-31T17:35:21.474Z,17.29
2022-10-31T18:00:35.151Z,15.58
2022-10-31T18:13:16.315Z,14.64
2022-10-31T18:25:49.888Z,14.77
2022-10-31T18:32:26.010Z,15.33
2022-10-31T18:39:40.801Z,13.94
2022-10-31T18:44:46.743Z,15.79
2022-10-31T19:08:58.377Z,15.62
2022-10-31T19:14:40.603Z,15.58
2022-10-31T19:51:13.546Z,14.73
2022-10-31T20:03:27.760Z,14.74
2022-10-31T20:08:27.388Z,15.00
2022-10-31T20:26:04.265Z,14.93
2022-10-31T20:32:10.558Z,13.62
2022-10-31T20:43:40.149Z,14.82
2022-10-31T20:48:50.353Z,14.85
2022-10-31T20:54:00.565Z,13.59
2022-10-31T20:59:40.622Z,14.86
2022-10-31T21:05:30.674Z,13.59
2022-10-31T21:11:23.842Z,13.93
2022-10-31T21:16:53.753Z,14.83
2022-10-31T21:22:30.343Z,13.22
2022-10-31T21:27:58.260Z,13.48
2022-10-31T21:33:35.099Z,14.62
2022-10-31T22:00:23.735Z,14.60
2022-10-31T22:06:27.088Z,14.10
2022-10-31T22:23:53.762Z,13.13
2022-10-31T22:28:59.291Z,12.94
2022-10-31T22:34:03.606Z,12.83
2022-10-31T22:39:09.216Z,14.04
2022-10-31T22:44:23.776Z,13.12
2022-10-31T22:50:11.529Z,14.26
2022-10-31T23:01:30.780Z,12.86
2022-10-31T23:06:52.747Z,12.76
2022-10-31T23:11:46.663Z,13.25
2022-10-31T23:22:48.120Z,12.85
2022-10-31T23:28:17.716Z,12.71
2022-10-31T23:34:06.822Z,12.34
2022-10-31T23:52:01.662Z,13.11
2022-10-31T23:58:03.721Z,13.20
